sensor_id;sensor_type;location;lat;lon;timestamp;P1;durP1;ratioP1;P2;durP2;ratioP2
56122;SDS011;42426;46.104;19.656;2023-04-03T00:01:34;14.27;;;9.05;;
56122;SDS011;42426;46.104;19.656;2023-04-03T00:04:00;12.98;;;9.00;;
56122;SDS011;42426;46.104;19.656;2023-04-03T00:06:26;15.93;;;9.25;;
56122;SDS011;42426;46.104;19.656;2023-04-03T00:08:52;13.05;;;9.25;;
56122;SDS011;42426;46.104;19.656;2023-04-03T00:11:18;13.98;;;9.80;;
56122;SDS011;42426;46.104;19.656;2023-04-03T00:13:45;15.48;;;9.98;;
56122;SDS011;42426;46.104;19.656;2023-04-03T00:16:11;18.00;;;10.32;;
56122;SDS011;42426;46.104;19.656;2023-04-03T00:18:38;15.05;;;10.15;;
56122;SDS011;42426;46.104;19.656;2023-04-03T00:21:05;17.65;;;10.18;;
56122;SDS011;42426;46.104;19.656;2023-04-03T00:23:34;15.38;;;9.68;;
56122;SDS011;42426;46.104;19.656;2023-04-03T00:25:59;15.23;;;9.45;;
56122;SDS011;42426;46.104;19.656;2023-04-03T00:28:27;15.38;;;10.10;;
56122;SDS011;42426;46.104;19.656;2023-04-03T00:30:52;19.75;;;10.48;;
56122;SDS011;42426;46.104;19.656;2023-04-03T00:33:18;14.73;;;10.23;;
56122;SDS011;42426;46.104;19.656;2023-04-03T00:35:46;27.67;;;11.50;;
56122;SDS011;42426;46.104;19.656;2023-04-03T00:38:13;16.73;;;10.60;;
56122;SDS011;42426;46.104;19.656;2023-04-03T00:40:41;18.25;;;11.77;;
56122;SDS011;42426;46.104;19.656;2023-04-03T00:43:11;17.33;;;11.13;;
56122;SDS011;42426;46.104;19.656;2023-04-03T00:45:46;17.60;;;10.68;;
56122;SDS011;42426;46.104;19.656;2023-04-03T00:48:18;20.67;;;12.38;;
56122;SDS011;42426;46.104;19.656;2023-04-03T00:50:46;17.88;;;11.30;;
56122;SDS011;42426;46.104;19.656;2023-04-03T00:53:15;17.00;;;10.98;;
56122;SDS011;42426;46.104;19.656;2023-04-03T00:55:44;17.80;;;10.48;;
56122;SDS011;42426;46.104;19.656;2023-04-03T00:58:11;15.00;;;10.93;;
56122;SDS011;42426;46.104;19.656;2023-04-03T01:00:40;20.40;;;11.80;;
56122;SDS011;42426;46.104;19.656;2023-04-03T01:03:10;15.50;;;10.95;;
56122;SDS011;42426;46.104;19.656;2023-04-03T01:05:36;15.88;;;10.35;;
56122;SDS011;42426;46.104;19.656;2023-04-03T01:08:02;15.75;;;10.15;;
56122;SDS011;42426;46.104;19.656;2023-04-03T01:10:28;19.27;;;10.75;;
56122;SDS011;42426;46.104;19.656;2023-04-03T01:12:54;17.35;;;10.93;;
56122;SDS011;42426;46.104;19.656;2023-04-03T01:15:22;13.77;;;8.98;;
56122;SDS011;42426;46.104;19.656;2023-04-03T01:17:51;15.02;;;9.00;;
56122;SDS011;42426;46.104;19.656;2023-04-03T01:25:27;16.92;;;10.50;;
56122;SDS011;42426;46.104;19.656;2023-04-03T01:27:53;14.80;;;9.98;;
56122;SDS011;42426;46.104;19.656;2023-04-03T01:30:20;15.45;;;10.07;;
56122;SDS011;42426;46.104;19.656;2023-04-03T01:32:48;15.27;;;10.35;;
56122;SDS011;42426;46.104;19.656;2023-04-03T01:35:14;13.27;;;9.25;;
56122;SDS011;42426;46.104;19.656;2023-04-03T01:37:40;17.15;;;9.73;;
56122;SDS011;42426;46.104;19.656;2023-04-03T01:40:06;15.55;;;9.00;;
56122;SDS011;42426;46.104;19.656;2023-04-03T01:42:33;16.20;;;9.85;;
56122;SDS011;42426;46.104;19.656;2023-04-03T01:44:59;13.30;;;8.48;;
56122;SDS011;42426;46.104;19.656;2023-04-03T01:47:25;14.80;;;8.88;;
56122;SDS011;42426;46.104;19.656;2023-04-03T01:49:51;12.35;;;7.80;;
56122;SDS011;42426;46.104;19.656;2023-04-03T01:52:17;11.45;;;7.78;;
56122;SDS011;42426;46.104;19.656;2023-04-03T01:54:43;12.90;;;8.95;;
56122;SDS011;42426;46.104;19.656;2023-04-03T01:57:08;13.10;;;9.07;;
56122;SDS011;42426;46.104;19.656;2023-04-03T01:59:35;9.90;;;6.97;;
56122;SDS011;42426;46.104;19.656;2023-04-03T02:02:01;9.45;;;7.15;;
56122;SDS011;42426;46.104;19.656;2023-04-03T02:04:26;10.52;;;6.75;;
56122;SDS011;42426;46.104;19.656;2023-04-03T02:06:52;10.00;;;6.50;;
56122;SDS011;42426;46.104;19.656;2023-04-03T02:09:18;12.25;;;5.53;;
56122;SDS011;42426;46.104;19.656;2023-04-03T02:11:43;7.72;;;5.18;;
56122;SDS011;42426;46.104;19.656;2023-04-03T02:14:09;4.75;;;3.67;;
56122;SDS011;42426;46.104;19.656;2023-04-03T02:16:35;6.60;;;3.10;;
56122;SDS011;42426;46.104;19.656;2023-04-03T02:19:00;4.95;;;2.90;;
56122;SDS011;42426;46.104;19.656;2023-04-03T02:21:26;4.32;;;2.90;;
56122;SDS011;42426;46.104;19.656;2023-04-03T02:23:53;4.22;;;2.30;;
56122;SDS011;42426;46.104;19.656;2023-04-03T02:26:18;4.68;;;2.60;;
56122;SDS011;42426;46.104;19.656;2023-04-03T02:28:44;4.75;;;2.50;;
56122;SDS011;42426;46.104;19.656;2023-04-03T02:31:10;3.80;;;2.53;;
56122;SDS011;42426;46.104;19.656;2023-04-03T02:33:36;3.90;;;2.58;;
56122;SDS011;42426;46.104;19.656;2023-04-03T02:36:03;4.32;;;2.65;;
56122;SDS011;42426;46.104;19.656;2023-04-03T02:38:30;4.05;;;2.60;;
56122;SDS011;42426;46.104;19.656;2023-04-03T02:41:00;3.13;;;2.30;;
56122;SDS011;42426;46.104;19.656;2023-04-03T02:43:26;4.72;;;2.63;;
56122;SDS011;42426;46.104;19.656;2023-04-03T02:45:52;5.28;;;2.78;;
56122;SDS011;42426;46.104;19.656;2023-04-03T02:48:18;5.95;;;3.28;;
56122;SDS011;42426;46.104;19.656;2023-04-03T02:50:44;3.40;;;2.35;;
56122;SDS011;42426;46.104;19.656;2023-04-03T02:53:10;4.50;;;2.85;;
56122;SDS011;42426;46.104;19.656;2023-04-03T02:55:35;3.85;;;2.85;;
56122;SDS011;42426;46.104;19.656;2023-04-03T02:58:01;4.75;;;2.80;;
56122;SDS011;42426;46.104;19.656;2023-04-03T03:00:28;3.50;;;2.33;;
56122;SDS011;42426;46.104;19.656;2023-04-03T03:02:54;2.78;;;2.45;;
56122;SDS011;42426;46.104;19.656;2023-04-03T03:05:20;3.78;;;2.75;;
56122;SDS011;42426;46.104;19.656;2023-04-03T03:07:47;3.50;;;2.20;;
56122;SDS011;42426;46.104;19.656;2023-04-03T03:10:13;3.30;;;2.95;;
56122;SDS011;42426;46.104;19.656;2023-04-03T03:12:40;2.80;;;2.47;;
56122;SDS011;42426;46.104;19.656;2023-04-03T03:15:06;2.95;;;2.58;;
56122;SDS011;42426;46.104;19.656;2023-04-03T03:17:32;3.70;;;2.58;;
56122;SDS011;42426;46.104;19.656;2023-04-03T03:19:58;4.78;;;2.65;;
56122;SDS011;42426;46.104;19.656;2023-04-03T03:22:24;2.90;;;2.30;;
56122;SDS011;42426;46.104;19.656;2023-04-03T03:24:50;3.05;;;2.30;;
56122;SDS011;42426;46.104;19.656;2023-04-03T03:27:16;3.03;;;2.22;;
56122;SDS011;42426;46.104;19.656;2023-04-03T03:29:42;3.65;;;2.60;;
56122;SDS011;42426;46.104;19.656;2023-04-03T03:32:08;4.00;;;2.25;;
56122;SDS011;42426;46.104;19.656;2023-04-03T03:34:33;3.65;;;2.45;;
56122;SDS011;42426;46.104;19.656;2023-04-03T03:37:00;3.17;;;2.13;;
56122;SDS011;42426;46.104;19.656;2023-04-03T03:39:26;3.47;;;2.20;;
56122;SDS011;42426;46.104;19.656;2023-04-03T03:41:52;3.78;;;2.55;;
56122;SDS011;42426;46.104;19.656;2023-04-03T03:44:18;2.58;;;2.08;;
56122;SDS011;42426;46.104;19.656;2023-04-03T03:46:44;3.90;;;3.47;;
56122;SDS011;42426;46.104;19.656;2023-04-03T03:49:10;3.58;;;2.60;;
56122;SDS011;42426;46.104;19.656;2023-04-03T03:51:36;2.92;;;2.35;;
56122;SDS011;42426;46.104;19.656;2023-04-03T03:54:03;2.30;;;2.10;;
56122;SDS011;42426;46.104;19.656;2023-04-03T03:56:31;3.10;;;2.35;;
56122;SDS011;42426;46.104;19.656;2023-04-03T03:58:56;2.78;;;2.10;;
56122;SDS011;42426;46.104;19.656;2023-04-03T04:01:23;2.85;;;2.20;;
56122;SDS011;42426;46.104;19.656;2023-04-03T04:03:49;3.90;;;2.33;;
56122;SDS011;42426;46.104;19.656;2023-04-03T04:06:15;2.63;;;1.90;;
56122;SDS011;42426;46.104;19.656;2023-04-03T04:08:41;5.93;;;2.55;;
56122;SDS011;42426;46.104;19.656;2023-04-03T04:11:09;3.38;;;2.38;;
56122;SDS011;42426;46.104;19.656;2023-04-03T04:13:34;3.88;;;2.47;;
56122;SDS011;42426;46.104;19.656;2023-04-03T04:16:00;5.28;;;3.50;;
56122;SDS011;42426;46.104;19.656;2023-04-03T04:18:26;5.55;;;3.10;;
56122;SDS011;42426;46.104;19.656;2023-04-03T04:20:51;5.35;;;2.53;;
56122;SDS011;42426;46.104;19.656;2023-04-03T04:23:18;4.80;;;2.80;;
56122;SDS011;42426;46.104;19.656;2023-04-03T04:25:45;3.53;;;2.80;;
56122;SDS011;42426;46.104;19.656;2023-04-03T04:28:11;5.28;;;2.70;;
56122;SDS011;42426;46.104;19.656;2023-04-03T04:30:37;5.25;;;2.78;;
56122;SDS011;42426;46.104;19.656;2023-04-03T04:33:03;5.68;;;2.65;;
56122;SDS011;42426;46.104;19.656;2023-04-03T04:35:29;2.97;;;2.42;;
56122;SDS011;42426;46.104;19.656;2023-04-03T04:37:55;8.82;;;3.00;;
56122;SDS011;42426;46.104;19.656;2023-04-03T04:40:21;4.22;;;2.80;;
56122;SDS011;42426;46.104;19.656;2023-04-03T04:42:48;8.27;;;3.55;;
56122;SDS011;42426;46.104;19.656;2023-04-03T04:45:13;4.80;;;3.22;;
56122;SDS011;42426;46.104;19.656;2023-04-03T04:47:40;5.28;;;3.15;;
56122;SDS011;42426;46.104;19.656;2023-04-03T04:50:06;4.60;;;3.03;;
56122;SDS011;42426;46.104;19.656;2023-04-03T04:52:32;8.07;;;5.05;;
56122;SDS011;42426;46.104;19.656;2023-04-03T04:54:58;7.50;;;4.32;;
56122;SDS011;42426;46.104;19.656;2023-04-03T04:57:24;7.00;;;4.53;;
56122;SDS011;42426;46.104;19.656;2023-04-03T04:59:50;6.03;;;4.13;;
56122;SDS011;42426;46.104;19.656;2023-04-03T05:02:16;5.45;;;3.85;;
56122;SDS011;42426;46.104;19.656;2023-04-03T05:04:42;5.65;;;3.55;;
56122;SDS011;42426;46.104;19.656;2023-04-03T05:07:07;6.90;;;3.80;;
56122;SDS011;42426;46.104;19.656;2023-04-03T05:09:33;4.30;;;2.90;;
56122;SDS011;42426;46.104;19.656;2023-04-03T05:12:00;4.18;;;2.80;;
56122;SDS011;42426;46.104;19.656;2023-04-03T05:14:27;5.53;;;3.42;;
56122;SDS011;42426;46.104;19.656;2023-04-03T05:16:53;8.63;;;4.90;;
56122;SDS011;42426;46.104;19.656;2023-04-03T05:19:22;9.77;;;6.25;;
56122;SDS011;42426;46.104;19.656;2023-04-03T05:21:48;10.05;;;6.43;;
56122;SDS011;42426;46.104;19.656;2023-04-03T05:24:14;10.32;;;6.70;;
56122;SDS011;42426;46.104;19.656;2023-04-03T05:26:41;13.55;;;7.97;;
56122;SDS011;42426;46.104;19.656;2023-04-03T05:29:08;13.32;;;7.13;;
56122;SDS011;42426;46.104;19.656;2023-04-03T05:31:34;11.15;;;7.18;;
56122;SDS011;42426;46.104;19.656;2023-04-03T05:34:00;13.25;;;7.45;;
56122;SDS011;42426;46.104;19.656;2023-04-03T05:36:26;13.73;;;8.45;;
56122;SDS011;42426;46.104;19.656;2023-04-03T05:38:52;12.98;;;7.60;;
56122;SDS011;42426;46.104;19.656;2023-04-03T05:41:18;17.02;;;7.63;;
56122;SDS011;42426;46.104;19.656;2023-04-03T05:43:43;9.48;;;6.70;;
56122;SDS011;42426;46.104;19.656;2023-04-03T05:46:13;11.25;;;7.10;;
56122;SDS011;42426;46.104;19.656;2023-04-03T05:48:40;11.50;;;7.18;;
56122;SDS011;42426;46.104;19.656;2023-04-03T05:51:07;12.68;;;8.52;;
56122;SDS011;42426;46.104;19.656;2023-04-03T05:53:38;11.57;;;7.68;;
56122;SDS011;42426;46.104;19.656;2023-04-03T05:56:03;10.90;;;7.30;;
56122;SDS011;42426;46.104;19.656;2023-04-03T05:58:30;12.10;;;7.80;;
56122;SDS011;42426;46.104;19.656;2023-04-03T06:00:55;10.75;;;7.03;;
56122;SDS011;42426;46.104;19.656;2023-04-03T06:03:22;10.63;;;7.05;;
56122;SDS011;42426;46.104;19.656;2023-04-03T06:05:48;11.15;;;7.95;;
56122;SDS011;42426;46.104;19.656;2023-04-03T06:08:13;10.52;;;7.53;;
56122;SDS011;42426;46.104;19.656;2023-04-03T06:10:39;11.30;;;7.72;;
56122;SDS011;42426;46.104;19.656;2023-04-03T06:13:05;9.27;;;7.25;;
56122;SDS011;42426;46.104;19.656;2023-04-03T06:15:31;9.02;;;6.75;;
56122;SDS011;42426;46.104;19.656;2023-04-03T06:17:57;12.75;;;7.63;;
56122;SDS011;42426;46.104;19.656;2023-04-03T06:20:23;16.45;;;10.07;;
56122;SDS011;42426;46.104;19.656;2023-04-03T06:22:49;17.60;;;8.35;;
56122;SDS011;42426;46.104;19.656;2023-04-03T06:25:16;11.40;;;7.35;;
56122;SDS011;42426;46.104;19.656;2023-04-03T06:27:43;11.25;;;7.28;;
56122;SDS011;42426;46.104;19.656;2023-04-03T06:30:10;30.90;;;23.85;;
56122;SDS011;42426;46.104;19.656;2023-04-03T06:32:36;19.73;;;12.60;;
56122;SDS011;42426;46.104;19.656;2023-04-03T06:35:02;16.45;;;11.88;;
56122;SDS011;42426;46.104;19.656;2023-04-03T06:37:29;15.07;;;9.50;;
56122;SDS011;42426;46.104;19.656;2023-04-03T06:39:55;14.05;;;9.32;;
56122;SDS011;42426;46.104;19.656;2023-04-03T06:42:21;12.45;;;6.85;;
56122;SDS011;42426;46.104;19.656;2023-04-03T06:44:47;12.35;;;6.85;;
56122;SDS011;42426;46.104;19.656;2023-04-03T06:47:14;11.82;;;6.97;;
56122;SDS011;42426;46.104;19.656;2023-04-03T06:49:40;11.35;;;7.50;;
56122;SDS011;42426;46.104;19.656;2023-04-03T06:52:06;12.00;;;7.63;;
56122;SDS011;42426;46.104;19.656;2023-04-03T06:54:32;13.13;;;8.45;;
56122;SDS011;42426;46.104;19.656;2023-04-03T06:56:58;10.82;;;7.32;;
56122;SDS011;42426;46.104;19.656;2023-04-03T06:59:24;14.60;;;8.95;;
56122;SDS011;42426;46.104;19.656;2023-04-03T07:01:50;11.57;;;7.72;;
56122;SDS011;42426;46.104;19.656;2023-04-03T07:04:16;11.20;;;7.57;;
56122;SDS011;42426;46.104;19.656;2023-04-03T07:06:44;9.52;;;6.70;;
56122;SDS011;42426;46.104;19.656;2023-04-03T07:09:10;8.73;;;6.20;;
56122;SDS011;42426;46.104;19.656;2023-04-03T07:11:36;8.88;;;5.80;;
56122;SDS011;42426;46.104;19.656;2023-04-03T07:14:08;9.30;;;5.38;;
56122;SDS011;42426;46.104;19.656;2023-04-03T07:16:34;8.98;;;6.75;;
56122;SDS011;42426;46.104;19.656;2023-04-03T07:19:00;8.48;;;5.65;;
56122;SDS011;42426;46.104;19.656;2023-04-03T07:21:26;8.15;;;5.50;;
56122;SDS011;42426;46.104;19.656;2023-04-03T07:23:53;10.90;;;5.72;;
56122;SDS011;42426;46.104;19.656;2023-04-03T07:26:18;9.60;;;5.97;;
56122;SDS011;42426;46.104;19.656;2023-04-03T07:28:47;8.20;;;5.47;;
56122;SDS011;42426;46.104;19.656;2023-04-03T07:31:14;8.85;;;6.10;;
56122;SDS011;42426;46.104;19.656;2023-04-03T07:33:43;10.77;;;6.78;;
56122;SDS011;42426;46.104;19.656;2023-04-03T07:36:10;13.18;;;7.30;;
56122;SDS011;42426;46.104;19.656;2023-04-03T07:38:39;10.93;;;6.90;;
56122;SDS011;42426;46.104;19.656;2023-04-03T07:41:05;12.52;;;5.45;;
56122;SDS011;42426;46.104;19.656;2023-04-03T07:43:32;14.40;;;7.03;;
56122;SDS011;42426;46.104;19.656;2023-04-03T07:45:59;10.60;;;6.25;;
56122;SDS011;42426;46.104;19.656;2023-04-03T07:48:25;8.80;;;6.20;;
56122;SDS011;42426;46.104;19.656;2023-04-03T07:50:51;8.27;;;5.25;;
56122;SDS011;42426;46.104;19.656;2023-04-03T07:53:17;11.40;;;7.65;;
56122;SDS011;42426;46.104;19.656;2023-04-03T07:55:47;8.00;;;6.32;;
56122;SDS011;42426;46.104;19.656;2023-04-03T07:58:14;7.07;;;4.93;;
56122;SDS011;42426;46.104;19.656;2023-04-03T08:00:42;6.85;;;4.90;;
56122;SDS011;42426;46.104;19.656;2023-04-03T08:03:09;7.32;;;5.00;;
56122;SDS011;42426;46.104;19.656;2023-04-03T08:05:42;6.80;;;5.35;;
56122;SDS011;42426;46.104;19.656;2023-04-03T08:08:14;6.57;;;5.03;;
56122;SDS011;42426;46.104;19.656;2023-04-03T08:10:41;6.38;;;4.60;;
56122;SDS011;42426;46.104;19.656;2023-04-03T08:13:07;6.93;;;4.93;;
56122;SDS011;42426;46.104;19.656;2023-04-03T08:15:34;8.20;;;4.95;;
56122;SDS011;42426;46.104;19.656;2023-04-03T08:18:00;6.22;;;4.25;;
56122;SDS011;42426;46.104;19.656;2023-04-03T08:20:26;6.25;;;4.13;;
56122;SDS011;42426;46.104;19.656;2023-04-03T08:22:52;6.63;;;4.70;;
56122;SDS011;42426;46.104;19.656;2023-04-03T08:25:18;6.13;;;4.13;;
56122;SDS011;42426;46.104;19.656;2023-04-03T08:27:44;5.30;;;4.68;;
56122;SDS011;42426;46.104;19.656;2023-04-03T08:30:10;7.90;;;5.05;;
56122;SDS011;42426;46.104;19.656;2023-04-03T08:32:36;7.10;;;4.95;;
56122;SDS011;42426;46.104;19.656;2023-04-03T08:35:02;5.85;;;4.63;;
56122;SDS011;42426;46.104;19.656;2023-04-03T08:37:29;6.20;;;4.65;;
56122;SDS011;42426;46.104;19.656;2023-04-03T08:39:55;7.13;;;5.63;;
56122;SDS011;42426;46.104;19.656;2023-04-03T08:50:45;6.35;;;5.35;;
56122;SDS011;42426;46.104;19.656;2023-04-03T08:53:35;11.25;;;5.15;;
56122;SDS011;42426;46.104;19.656;2023-04-03T08:56:02;9.40;;;4.78;;
56122;SDS011;42426;46.104;19.656;2023-04-03T08:58:41;7.00;;;5.07;;
56122;SDS011;42426;46.104;19.656;2023-04-03T09:01:33;9.63;;;5.45;;
56122;SDS011;42426;46.104;19.656;2023-04-03T09:04:09;6.57;;;4.68;;
56122;SDS011;42426;46.104;19.656;2023-04-03T09:06:41;7.93;;;4.88;;
56122;SDS011;42426;46.104;19.656;2023-04-03T09:12:14;5.97;;;4.38;;
56122;SDS011;42426;46.104;19.656;2023-04-03T09:17:42;10.93;;;5.00;;
56122;SDS011;42426;46.104;19.656;2023-04-03T09:22:50;10.10;;;5.25;;
56122;SDS011;42426;46.104;19.656;2023-04-03T09:25:27;7.20;;;4.70;;
56122;SDS011;42426;46.104;19.656;2023-04-03T09:27:59;8.23;;;5.03;;
56122;SDS011;42426;46.104;19.656;2023-04-03T09:30:26;8.70;;;4.75;;
56122;SDS011;42426;46.104;19.656;2023-04-03T09:32:54;8.60;;;4.88;;
56122;SDS011;42426;46.104;19.656;2023-04-03T09:35:28;7.43;;;5.00;;
56122;SDS011;42426;46.104;19.656;2023-04-03T09:37:59;6.50;;;5.30;;
56122;SDS011;42426;46.104;19.656;2023-04-03T09:40:35;8.77;;;5.15;;
56122;SDS011;42426;46.104;19.656;2023-04-03T09:43:28;6.38;;;4.80;;
56122;SDS011;42426;46.104;19.656;2023-04-03T09:45:54;6.20;;;4.63;;
56122;SDS011;42426;46.104;19.656;2023-04-03T09:48:24;6.90;;;5.10;;
56122;SDS011;42426;46.104;19.656;2023-04-03T09:53:33;7.75;;;5.60;;
56122;SDS011;42426;46.104;19.656;2023-04-03T09:58:43;8.73;;;5.43;;
56122;SDS011;42426;46.104;19.656;2023-04-03T10:01:25;5.65;;;4.35;;
56122;SDS011;42426;46.104;19.656;2023-04-03T10:04:16;6.88;;;5.47;;
56122;SDS011;42426;46.104;19.656;2023-04-03T10:09:31;7.75;;;4.97;;
56122;SDS011;42426;46.104;19.656;2023-04-03T10:14:35;5.95;;;4.28;;
56122;SDS011;42426;46.104;19.656;2023-04-03T10:38:30;7.07;;;4.07;;
56122;SDS011;42426;46.104;19.656;2023-04-03T10:41:38;9.02;;;4.70;;
56122;SDS011;42426;46.104;19.656;2023-04-03T10:47:10;6.40;;;3.50;;
56122;SDS011;42426;46.104;19.656;2023-04-03T10:49:51;5.32;;;3.30;;
56122;SDS011;42426;46.104;19.656;2023-04-03T10:52:22;4.80;;;3.00;;
56122;SDS011;42426;46.104;19.656;2023-04-03T10:57:49;3.70;;;3.05;;
56122;SDS011;42426;46.104;19.656;2023-04-03T11:00:18;4.20;;;3.13;;
56122;SDS011;42426;46.104;19.656;2023-04-03T11:02:50;4.32;;;2.70;;
56122;SDS011;42426;46.104;19.656;2023-04-03T11:10:50;4.43;;;2.67;;
56122;SDS011;42426;46.104;19.656;2023-04-03T11:13:52;3.13;;;2.63;;
56122;SDS011;42426;46.104;19.656;2023-04-03T11:16:19;5.50;;;2.42;;
56122;SDS011;42426;46.104;19.656;2023-04-03T11:18:52;5.47;;;3.08;;
56122;SDS011;42426;46.104;19.656;2023-04-03T11:21:46;4.25;;;2.42;;
56122;SDS011;42426;46.104;19.656;2023-04-03T11:24:28;4.00;;;2.42;;
56122;SDS011;42426;46.104;19.656;2023-04-03T11:26:57;3.22;;;2.47;;
56122;SDS011;42426;46.104;19.656;2023-04-03T11:29:27;5.10;;;2.63;;
56122;SDS011;42426;46.104;19.656;2023-04-03T11:35:04;4.20;;;2.50;;
56122;SDS011;42426;46.104;19.656;2023-04-03T11:37:38;6.97;;;2.40;;
56122;SDS011;42426;46.104;19.656;2023-04-03T11:42:43;2.50;;;2.30;;
56122;SDS011;42426;46.104;19.656;2023-04-03T11:47:45;2.90;;;2.40;;
56122;SDS011;42426;46.104;19.656;2023-04-03T11:58:15;3.80;;;2.38;;
56122;SDS011;42426;46.104;19.656;2023-04-03T12:05:54;8.38;;;2.88;;
56122;SDS011;42426;46.104;19.656;2023-04-03T12:08:28;4.15;;;2.38;;
56122;SDS011;42426;46.104;19.656;2023-04-03T12:11:28;7.05;;;3.08;;
56122;SDS011;42426;46.104;19.656;2023-04-03T12:14:05;6.68;;;3.08;;
56122;SDS011;42426;46.104;19.656;2023-04-03T12:35:10;7.90;;;4.45;;
56122;SDS011;42426;46.104;19.656;2023-04-03T12:38:01;7.78;;;4.25;;
56122;SDS011;42426;46.104;19.656;2023-04-03T12:40:57;7.55;;;3.55;;
56122;SDS011;42426;46.104;19.656;2023-04-03T12:46:14;3.50;;;2.97;;
56122;SDS011;42426;46.104;19.656;2023-04-03T12:48:53;5.55;;;3.30;;
56122;SDS011;42426;46.104;19.656;2023-04-03T12:53:52;4.53;;;3.40;;
56122;SDS011;42426;46.104;19.656;2023-04-03T12:56:42;5.53;;;3.67;;
56122;SDS011;42426;46.104;19.656;2023-04-03T12:59:21;7.88;;;3.95;;
56122;SDS011;42426;46.104;19.656;2023-04-03T13:01:56;5.97;;;4.43;;
56122;SDS011;42426;46.104;19.656;2023-04-03T13:04:23;8.77;;;4.40;;
56122;SDS011;42426;46.104;19.656;2023-04-03T13:06:50;7.32;;;4.55;;
56122;SDS011;42426;46.104;19.656;2023-04-03T13:09:29;9.38;;;5.75;;
56122;SDS011;42426;46.104;19.656;2023-04-03T13:12:12;7.25;;;4.07;;
56122;SDS011;42426;46.104;19.656;2023-04-03T13:14:39;4.18;;;3.40;;
56122;SDS011;42426;46.104;19.656;2023-04-03T13:17:14;8.23;;;3.53;;
56122;SDS011;42426;46.104;19.656;2023-04-03T13:19:42;9.48;;;3.63;;
56122;SDS011;42426;46.104;19.656;2023-04-03T13:25:09;5.57;;;3.38;;
56122;SDS011;42426;46.104;19.656;2023-04-03T13:27:38;12.10;;;4.30;;
56122;SDS011;42426;46.104;19.656;2023-04-03T13:30:17;8.07;;;3.60;;
56122;SDS011;42426;46.104;19.656;2023-04-03T13:32:55;6.00;;;3.67;;
56122;SDS011;42426;46.104;19.656;2023-04-03T13:35:25;4.45;;;3.72;;
56122;SDS011;42426;46.104;19.656;2023-04-03T13:37:58;8.88;;;3.28;;
56122;SDS011;42426;46.104;19.656;2023-04-03T13:40:26;4.25;;;3.33;;
56122;SDS011;42426;46.104;19.656;2023-04-03T13:43:14;7.13;;;3.30;;
56122;SDS011;42426;46.104;19.656;2023-04-03T13:45:57;9.38;;;3.60;;
56122;SDS011;42426;46.104;19.656;2023-04-03T13:48:35;8.27;;;3.17;;
56122;SDS011;42426;46.104;19.656;2023-04-03T13:59:00;5.28;;;3.30;;
56122;SDS011;42426;46.104;19.656;2023-04-03T14:01:35;6.18;;;3.40;;
56122;SDS011;42426;46.104;19.656;2023-04-03T14:04:32;4.80;;;3.30;;
56122;SDS011;42426;46.104;19.656;2023-04-03T14:07:11;4.20;;;3.00;;
56122;SDS011;42426;46.104;19.656;2023-04-03T14:09:39;4.53;;;3.28;;
56122;SDS011;42426;46.104;19.656;2023-04-03T14:12:06;5.00;;;3.15;;
56122;SDS011;42426;46.104;19.656;2023-04-03T14:14:37;5.22;;;3.42;;
56122;SDS011;42426;46.104;19.656;2023-04-03T14:17:09;3.65;;;2.85;;
56122;SDS011;42426;46.104;19.656;2023-04-03T14:19:45;3.90;;;3.40;;
56122;SDS011;42426;46.104;19.656;2023-04-03T14:22:14;8.15;;;3.60;;
56122;SDS011;42426;46.104;19.656;2023-04-03T14:24:50;6.53;;;3.33;;
56122;SDS011;42426;46.104;19.656;2023-04-03T14:29:45;5.05;;;3.75;;
56122;SDS011;42426;46.104;19.656;2023-04-03T14:32:12;6.28;;;3.72;;
56122;SDS011;42426;46.104;19.656;2023-04-03T14:34:39;5.72;;;3.22;;
56122;SDS011;42426;46.104;19.656;2023-04-03T14:37:09;5.07;;;4.57;;
56122;SDS011;42426;46.104;19.656;2023-04-03T14:39:36;5.88;;;3.05;;
56122;SDS011;42426;46.104;19.656;2023-04-03T14:42:01;5.57;;;3.83;;
56122;SDS011;42426;46.104;19.656;2023-04-03T14:44:27;5.18;;;3.75;;
56122;SDS011;42426;46.104;19.656;2023-04-03T14:46:53;5.25;;;3.58;;
56122;SDS011;42426;46.104;19.656;2023-04-03T14:49:19;4.85;;;3.00;;
56122;SDS011;42426;46.104;19.656;2023-04-03T14:51:48;6.47;;;4.20;;
56122;SDS011;42426;46.104;19.656;2023-04-03T14:54:16;7.40;;;4.50;;
56122;SDS011;42426;46.104;19.656;2023-04-03T14:56:44;7.32;;;4.55;;
56122;SDS011;42426;46.104;19.656;2023-04-03T14:59:13;5.88;;;3.70;;
56122;SDS011;42426;46.104;19.656;2023-04-03T15:01:40;6.65;;;3.42;;
56122;SDS011;42426;46.104;19.656;2023-04-03T15:04:17;4.43;;;3.42;;
56122;SDS011;42426;46.104;19.656;2023-04-03T15:06:44;5.85;;;3.78;;
56122;SDS011;42426;46.104;19.656;2023-04-03T15:09:21;8.88;;;5.68;;
56122;SDS011;42426;46.104;19.656;2023-04-03T15:11:49;6.15;;;4.50;;
56122;SDS011;42426;46.104;19.656;2023-04-03T15:14:20;7.72;;;4.97;;
56122;SDS011;42426;46.104;19.656;2023-04-03T15:16:46;7.10;;;4.90;;
56122;SDS011;42426;46.104;19.656;2023-04-03T15:19:13;5.75;;;4.00;;
56122;SDS011;42426;46.104;19.656;2023-04-03T15:21:40;6.18;;;4.38;;
56122;SDS011;42426;46.104;19.656;2023-04-03T15:24:08;5.00;;;4.22;;
56122;SDS011;42426;46.104;19.656;2023-04-03T15:26:35;5.72;;;4.35;;
56122;SDS011;42426;46.104;19.656;2023-04-03T15:29:01;8.25;;;5.82;;
56122;SDS011;42426;46.104;19.656;2023-04-03T15:31:28;6.53;;;3.90;;
56122;SDS011;42426;46.104;19.656;2023-04-03T15:33:53;6.05;;;3.92;;
56122;SDS011;42426;46.104;19.656;2023-04-03T15:36:19;7.28;;;5.13;;
56122;SDS011;42426;46.104;19.656;2023-04-03T15:38:45;6.50;;;4.32;;
56122;SDS011;42426;46.104;19.656;2023-04-03T15:41:10;22.92;;;13.57;;
56122;SDS011;42426;46.104;19.656;2023-04-03T15:43:37;25.63;;;13.55;;
56122;SDS011;42426;46.104;19.656;2023-04-03T15:46:03;17.40;;;7.60;;
56122;SDS011;42426;46.104;19.656;2023-04-03T15:48:30;9.60;;;5.57;;
56122;SDS011;42426;46.104;19.656;2023-04-03T15:50:56;9.82;;;5.25;;
56122;SDS011;42426;46.104;19.656;2023-04-03T15:53:22;10.27;;;5.35;;
56122;SDS011;42426;46.104;19.656;2023-04-03T15:55:48;8.38;;;5.40;;
56122;SDS011;42426;46.104;19.656;2023-04-03T15:58:14;9.57;;;5.13;;
56122;SDS011;42426;46.104;19.656;2023-04-03T16:00:39;7.32;;;4.65;;
56122;SDS011;42426;46.104;19.656;2023-04-03T16:03:07;9.73;;;4.85;;
56122;SDS011;42426;46.104;19.656;2023-04-03T16:05:40;15.00;;;10.68;;
56122;SDS011;42426;46.104;19.656;2023-04-03T16:08:06;11.25;;;6.10;;
56122;SDS011;42426;46.104;19.656;2023-04-03T16:10:33;8.07;;;5.35;;
56122;SDS011;42426;46.104;19.656;2023-04-03T16:13:00;11.20;;;6.13;;
56122;SDS011;42426;46.104;19.656;2023-04-03T16:15:27;10.27;;;6.43;;
56122;SDS011;42426;46.104;19.656;2023-04-03T16:17:53;8.50;;;5.25;;
56122;SDS011;42426;46.104;19.656;2023-04-03T16:20:19;11.80;;;5.20;;
56122;SDS011;42426;46.104;19.656;2023-04-03T16:22:47;9.23;;;4.90;;
56122;SDS011;42426;46.104;19.656;2023-04-03T16:25:13;10.65;;;6.10;;
56122;SDS011;42426;46.104;19.656;2023-04-03T16:27:39;9.45;;;5.57;;
56122;SDS011;42426;46.104;19.656;2023-04-03T16:30:05;11.68;;;5.10;;
56122;SDS011;42426;46.104;19.656;2023-04-03T16:32:31;10.25;;;4.93;;
56122;SDS011;42426;46.104;19.656;2023-04-03T16:34:58;8.18;;;4.80;;
56122;SDS011;42426;46.104;19.656;2023-04-03T16:37:27;9.68;;;5.05;;
56122;SDS011;42426;46.104;19.656;2023-04-03T16:39:53;9.27;;;4.82;;
56122;SDS011;42426;46.104;19.656;2023-04-03T16:42:19;7.80;;;5.72;;